sensor_id;sensor_type;location;lat;lon;timestamp;temperature;humidity
23815;DHT22;12088;53.078;8.720;2023-01-09T00:00:45;5.20;99.90
23815;DHT22;12088;53.078;8.720;2023-01-09T00:03:11;5.10;99.90
23815;DHT22;12088;53.078;8.720;2023-01-09T00:05:36;5.10;99.90
23815;DHT22;12088;53.078;8.720;2023-01-09T00:08:01;5.20;99.90
23815;DHT22;12088;53.078;8.720;2023-01-09T00:10:27;5.20;99.90
23815;DHT22;12088;53.078;8.720;2023-01-09T00:12:52;5.20;99.90
23815;DHT22;12088;53.078;8.720;2023-01-09T00:15:18;5.20;99.90
23815;DHT22;12088;53.078;8.720;2023-01-09T00:17:43;5.20;99.90
23815;DHT22;12088;53.078;8.720;2023-01-09T00:20:12;5.30;99.90
23815;DHT22;12088;53.078;8.720;2023-01-09T00:22:38;5.40;99.90
23815;DHT22;12088;53.078;8.720;2023-01-09T00:25:03;5.40;99.90
23815;DHT22;12088;53.078;8.720;2023-01-09T00:27:31;5.40;99.90
23815;DHT22;12088;53.078;8.720;2023-01-09T00:29:57;5.50;99.90
23815;DHT22;12088;53.078;8.720;2023-01-09T00:32:22;5.40;99.90
23815;DHT22;12088;53.078;8.720;2023-01-09T00:34:48;5.40;99.90
23815;DHT22;12088;53.078;8.720;2023-01-09T00:37:13;5.40;99.90
23815;DHT22;12088;53.078;8.720;2023-01-09T00:39:39;5.50;99.90
23815;DHT22;12088;53.078;8.720;2023-01-09T00:42:08;5.50;99.90
23815;DHT22;12088;53.078;8.720;2023-01-09T00:44:37;5.50;99.90
23815;DHT22;12088;53.078;8.720;2023-01-09T00:47:11;5.50;99.90
23815;DHT22;12088;53.078;8.720;2023-01-09T00:49:38;5.60;99.90
23815;DHT22;12088;53.078;8.720;2023-01-09T00:52:06;5.60;99.90
23815;DHT22;12088;53.078;8.720;2023-01-09T00:54:34;5.60;99.90
23815;DHT22;12088;53.078;8.720;2023-01-09T00:56:59;5.60;99.90
23815;DHT22;12088;53.078;8.720;2023-01-09T00:59:26;5.60;99.90
23815;DHT22;12088;53.078;8.720;2023-01-09T01:01:52;5.70;99.90
23815;DHT22;12088;53.078;8.720;2023-01-09T01:04:17;5.70;99.90
23815;DHT22;12088;53.078;8.720;2023-01-09T01:07:01;5.80;99.90
23815;DHT22;12088;53.078;8.720;2023-01-09T01:09:45;5.80;99.90
23815;DHT22;12088;53.078;8.720;2023-01-09T01:12:11;5.90;99.90
23815;DHT22;12088;53.078;8.720;2023-01-09T01:14:37;5.90;99.90
23815;DHT22;12088;53.078;8.720;2023-01-09T01:17:04;6.00;99.90
23815;DHT22;12088;53.078;8.720;2023-01-09T01:19:30;6.10;99.90
23815;DHT22;12088;53.078;8.720;2023-01-09T01:21:56;6.10;99.90
23815;DHT22;12088;53.078;8.720;2023-01-09T01:24:22;6.20;99.90
23815;DHT22;12088;53.078;8.720;2023-01-09T01:26:48;6.20;99.90
23815;DHT22;12088;53.078;8.720;2023-01-09T01:29:13;6.30;99.90
23815;DHT22;12088;53.078;8.720;2023-01-09T01:31:39;6.40;99.90
23815;DHT22;12088;53.078;8.720;2023-01-09T01:34:04;6.50;99.90
23815;DHT22;12088;53.078;8.720;2023-01-09T01:36:30;6.50;99.90
23815;DHT22;12088;53.078;8.720;2023-01-09T01:38:55;6.60;99.90
23815;DHT22;12088;53.078;8.720;2023-01-09T01:41:21;6.60;99.90
23815;DHT22;12088;53.078;8.720;2023-01-09T01:44:01;6.60;99.90
23815;DHT22;12088;53.078;8.720;2023-01-09T01:46:28;6.60;99.90
23815;DHT22;12088;53.078;8.720;2023-01-09T01:51:29;6.70;99.90
23815;DHT22;12088;53.078;8.720;2023-01-09T01:54:01;6.60;99.90
23815;DHT22;12088;53.078;8.720;2023-01-09T01:56:41;6.60;99.90
23815;DHT22;12088;53.078;8.720;2023-01-09T01:59:13;6.50;99.90
23815;DHT22;12088;53.078;8.720;2023-01-09T02:01:43;6.50;99.90
23815;DHT22;12088;53.078;8.720;2023-01-09T02:04:10;6.50;99.90
23815;DHT22;12088;53.078;8.720;2023-01-09T02:06:36;6.50;99.90
23815;DHT22;12088;53.078;8.720;2023-01-09T02:09:04;6.60;99.90
23815;DHT22;12088;53.078;8.720;2023-01-09T02:11:30;6.60;99.90
23815;DHT22;12088;53.078;8.720;2023-01-09T02:13:56;6.70;99.90
23815;DHT22;12088;53.078;8.720;2023-01-09T02:19:49;6.70;99.90
23815;DHT22;12088;53.078;8.720;2023-01-09T02:22:40;6.70;99.90
23815;DHT22;12088;53.078;8.720;2023-01-09T02:25:19;6.70;99.90
23815;DHT22;12088;53.078;8.720;2023-01-09T02:31:22;6.80;99.90
23815;DHT22;12088;53.078;8.720;2023-01-09T02:34:23;6.90;99.90
23815;DHT22;12088;53.078;8.720;2023-01-09T02:37:00;6.90;99.90
23815;DHT22;12088;53.078;8.720;2023-01-09T02:42:33;7.00;99.90
23815;DHT22;12088;53.078;8.720;2023-01-09T02:44:59;6.90;99.90
23815;DHT22;12088;53.078;8.720;2023-01-09T02:50:00;6.90;99.90
23815;DHT22;12088;53.078;8.720;2023-01-09T02:52:47;6.90;99.90
23815;DHT22;12088;53.078;8.720;2023-01-09T03:03:39;7.00;99.90
23815;DHT22;12088;53.078;8.720;2023-01-09T03:08:55;7.10;99.90
23815;DHT22;12088;53.078;8.720;2023-01-09T03:11:21;7.10;99.90
23815;DHT22;12088;53.078;8.720;2023-01-09T03:13:52;7.10;99.90
23815;DHT22;12088;53.078;8.720;2023-01-09T03:16:31;7.10;99.90
23815;DHT22;12088;53.078;8.720;2023-01-09T03:18:59;7.20;99.90
23815;DHT22;12088;53.078;8.720;2023-01-09T03:21:26;7.10;99.90
23815;DHT22;12088;53.078;8.720;2023-01-09T03:24:00;7.10;99.90
23815;DHT22;12088;53.078;8.720;2023-01-09T03:26:27;7.10;99.90
23815;DHT22;12088;53.078;8.720;2023-01-09T03:28:56;7.10;99.90
23815;DHT22;12088;53.078;8.720;2023-01-09T03:31:22;7.10;99.90
23815;DHT22;12088;53.078;8.720;2023-01-09T03:33:48;7.10;99.90
23815;DHT22;12088;53.078;8.720;2023-01-09T03:36:16;7.20;99.90
23815;DHT22;12088;53.078;8.720;2023-01-09T03:38:42;7.20;99.90
23815;DHT22;12088;53.078;8.720;2023-01-09T03:41:07;7.20;99.90
23815;DHT22;12088;53.078;8.720;2023-01-09T03:43:33;7.20;99.90
23815;DHT22;12088;53.078;8.720;2023-01-09T03:45:59;7.20;99.90
23815;DHT22;12088;53.078;8.720;2023-01-09T03:48:25;7.30;99.90
23815;DHT22;12088;53.078;8.720;2023-01-09T03:50:51;7.20;99.90
23815;DHT22;12088;53.078;8.720;2023-01-09T03:53:18;7.20;99.90
23815;DHT22;12088;53.078;8.720;2023-01-09T03:55:48;7.20;99.90
23815;DHT22;12088;53.078;8.720;2023-01-09T03:58:15;7.30;99.90
23815;DHT22;12088;53.078;8.720;2023-01-09T04:00:42;7.20;99.90
23815;DHT22;12088;53.078;8.720;2023-01-09T04:03:08;7.10;99.90
23815;DHT22;12088;53.078;8.720;2023-01-09T04:05:34;7.10;99.90
23815;DHT22;12088;53.078;8.720;2023-01-09T04:07:59;7.10;99.90
23815;DHT22;12088;53.078;8.720;2023-01-09T04:10:25;7.10;99.90
23815;DHT22;12088;53.078;8.720;2023-01-09T04:12:50;7.10;99.90
23815;DHT22;12088;53.078;8.720;2023-01-09T04:15:16;7.10;99.90
23815;DHT22;12088;53.078;8.720;2023-01-09T04:17:41;7.00;99.90
23815;DHT22;12088;53.078;8.720;2023-01-09T04:20:08;7.10;99.90
23815;DHT22;12088;53.078;8.720;2023-01-09T04:22:33;7.10;99.90
23815;DHT22;12088;53.078;8.720;2023-01-09T04:24:59;7.10;99.90
23815;DHT22;12088;53.078;8.720;2023-01-09T04:27:24;7.10;99.90
23815;DHT22;12088;53.078;8.720;2023-01-09T04:29:50;7.00;99.90
23815;DHT22;12088;53.078;8.720;2023-01-09T04:32:15;6.90;99.90
23815;DHT22;12088;53.078;8.720;2023-01-09T04:34:41;6.90;99.90
23815;DHT22;12088;53.078;8.720;2023-01-09T04:37:06;6.90;99.90
23815;DHT22;12088;53.078;8.720;2023-01-09T04:39:31;6.90;99.90
23815;DHT22;12088;53.078;8.720;2023-01-09T04:41:57;6.90;99.90
23815;DHT22;12088;53.078;8.720;2023-01-09T04:44:23;7.00;99.90
23815;DHT22;12088;53.078;8.720;2023-01-09T04:46:52;7.00;99.90
23815;DHT22;12088;53.078;8.720;2023-01-09T04:49:18;6.90;99.90
23815;DHT22;12088;53.078;8.720;2023-01-09T04:51:44;6.90;99.90
23815;DHT22;12088;53.078;8.720;2023-01-09T04:54:09;6.90;99.90
23815;DHT22;12088;53.078;8.720;2023-01-09T04:56:36;6.90;99.90
23815;DHT22;12088;53.078;8.720;2023-01-09T04:59:02;6.90;99.90
23815;DHT22;12088;53.078;8.720;2023-01-09T05:01:28;6.90;99.90
23815;DHT22;12088;53.078;8.720;2023-01-09T05:03:54;6.90;99.90
23815;DHT22;12088;53.078;8.720;2023-01-09T05:06:19;6.90;99.90
23815;DHT22;12088;53.078;8.720;2023-01-09T05:08:45;7.00;99.90
23815;DHT22;12088;53.078;8.720;2023-01-09T05:11:10;6.90;99.90
23815;DHT22;12088;53.078;8.720;2023-01-09T05:13:35;6.90;99.90
23815;DHT22;12088;53.078;8.720;2023-01-09T05:16:01;6.90;99.90
23815;DHT22;12088;53.078;8.720;2023-01-09T05:18:27;7.00;99.90
23815;DHT22;12088;53.078;8.720;2023-01-09T05:20:52;7.00;99.90
23815;DHT22;12088;53.078;8.720;2023-01-09T05:23:18;6.90;99.90
23815;DHT22;12088;53.078;8.720;2023-01-09T05:25:43;6.90;99.90
23815;DHT22;12088;53.078;8.720;2023-01-09T05:28:09;6.90;99.90
23815;DHT22;12088;53.078;8.720;2023-01-09T05:30:34;6.80;99.90
23815;DHT22;12088;53.078;8.720;2023-01-09T05:33:00;6.70;99.90
23815;DHT22;12088;53.078;8.720;2023-01-09T05:35:25;6.70;99.90
23815;DHT22;12088;53.078;8.720;2023-01-09T05:37:50;6.70;99.90
23815;DHT22;12088;53.078;8.720;2023-01-09T05:40:16;6.70;99.90
23815;DHT22;12088;53.078;8.720;2023-01-09T05:42:42;6.60;99.90
23815;DHT22;12088;53.078;8.720;2023-01-09T05:45:09;6.50;99.90
23815;DHT22;12088;53.078;8.720;2023-01-09T05:47:35;6.50;99.90
23815;DHT22;12088;53.078;8.720;2023-01-09T05:50:00;6.50;99.90
23815;DHT22;12088;53.078;8.720;2023-01-09T05:52:26;6.40;99.90
23815;DHT22;12088;53.078;8.720;2023-01-09T05:54:51;6.40;99.90
23815;DHT22;12088;53.078;8.720;2023-01-09T05:57:17;6.40;99.90
23815;DHT22;12088;53.078;8.720;2023-01-09T05:59:42;6.40;99.90
23815;DHT22;12088;53.078;8.720;2023-01-09T06:02:08;6.30;99.90
23815;DHT22;12088;53.078;8.720;2023-01-09T06:04:33;6.30;99.90
23815;DHT22;12088;53.078;8.720;2023-01-09T06:06:59;6.30;99.90
23815;DHT22;12088;53.078;8.720;2023-01-09T06:09:24;6.30;99.90
23815;DHT22;12088;53.078;8.720;2023-01-09T06:11:50;6.20;99.90
23815;DHT22;12088;53.078;8.720;2023-01-09T06:14:19;6.20;99.90
23815;DHT22;12088;53.078;8.720;2023-01-09T06:16:45;6.10;99.90
23815;DHT22;12088;53.078;8.720;2023-01-09T06:19:11;6.10;99.90
23815;DHT22;12088;53.078;8.720;2023-01-09T06:21:36;6.10;99.90
23815;DHT22;12088;53.078;8.720;2023-01-09T06:24:02;6.00;99.90
23815;DHT22;12088;53.078;8.720;2023-01-09T06:26:27;6.00;99.90
23815;DHT22;12088;53.078;8.720;2023-01-09T06:28:53;6.00;99.90
23815;DHT22;12088;53.078;8.720;2023-01-09T06:31:22;6.00;99.90
23815;DHT22;12088;53.078;8.720;2023-01-09T06:33:48;5.90;99.90
23815;DHT22;12088;53.078;8.720;2023-01-09T06:36:13;5.90;99.90
23815;DHT22;12088;53.078;8.720;2023-01-09T06:38:39;5.80;99.90
23815;DHT22;12088;53.078;8.720;2023-01-09T06:41:04;5.90;99.90
23815;DHT22;12088;53.078;8.720;2023-01-09T06:43:30;5.90;99.90
23815;DHT22;12088;53.078;8.720;2023-01-09T06:45:56;5.80;99.90
23815;DHT22;12088;53.078;8.720;2023-01-09T06:48:21;5.80;99.90
23815;DHT22;12088;53.078;8.720;2023-01-09T06:50:52;5.90;99.90
23815;DHT22;12088;53.078;8.720;2023-01-09T06:53:17;5.90;99.90
23815;DHT22;12088;53.078;8.720;2023-01-09T06:55:44;5.90;99.90
23815;DHT22;12088;53.078;8.720;2023-01-09T06:58:09;5.90;99.90
23815;DHT22;12088;53.078;8.720;2023-01-09T07:00:35;5.80;99.90
23815;DHT22;12088;53.078;8.720;2023-01-09T07:03:01;5.80;99.90
23815;DHT22;12088;53.078;8.720;2023-01-09T07:05:26;5.80;99.90
23815;DHT22;12088;53.078;8.720;2023-01-09T07:07:52;5.70;99.90
23815;DHT22;12088;53.078;8.720;2023-01-09T07:10:18;5.70;99.90
23815;DHT22;12088;53.078;8.720;2023-01-09T07:12:43;5.80;99.90
23815;DHT22;12088;53.078;8.720;2023-01-09T07:15:09;5.80;99.90
23815;DHT22;12088;53.078;8.720;2023-01-09T07:17:35;5.80;99.90
23815;DHT22;12088;53.078;8.720;2023-01-09T07:20:00;5.80;99.90
23815;DHT22;12088;53.078;8.720;2023-01-09T07:22:26;5.70;99.90
23815;DHT22;12088;53.078;8.720;2023-01-09T07:24:51;5.80;99.90
23815;DHT22;12088;53.078;8.720;2023-01-09T07:27:17;5.70;99.90
23815;DHT22;12088;53.078;8.720;2023-01-09T07:29:42;5.70;99.90
23815;DHT22;12088;53.078;8.720;2023-01-09T07:32:08;5.70;99.90
23815;DHT22;12088;53.078;8.720;2023-01-09T07:34:33;5.60;99.90
23815;DHT22;12088;53.078;8.720;2023-01-09T07:36:59;5.50;99.90
23815;DHT22;12088;53.078;8.720;2023-01-09T07:39:25;5.60;99.90
23815;DHT22;12088;53.078;8.720;2023-01-09T07:41:51;5.60;99.90
23815;DHT22;12088;53.078;8.720;2023-01-09T07:44:16;5.60;99.90
23815;DHT22;12088;53.078;8.720;2023-01-09T07:46:41;5.60;99.90
23815;DHT22;12088;53.078;8.720;2023-01-09T07:49:07;5.60;99.90
23815;DHT22;12088;53.078;8.720;2023-01-09T07:51:33;5.70;99.90
23815;DHT22;12088;53.078;8.720;2023-01-09T07:53:58;5.80;99.90
23815;DHT22;12088;53.078;8.720;2023-01-09T07:56:24;5.80;99.90
23815;DHT22;12088;53.078;8.720;2023-01-09T07:58:49;5.90;99.90
23815;DHT22;12088;53.078;8.720;2023-01-09T08:01:15;6.00;99.90
23815;DHT22;12088;53.078;8.720;2023-01-09T08:03:40;6.00;99.90
23815;DHT22;12088;53.078;8.720;2023-01-09T08:06:06;6.00;99.90
23815;DHT22;12088;53.078;8.720;2023-01-09T08:08:31;6.00;99.90
23815;DHT22;12088;53.078;8.720;2023-01-09T08:10:57;6.10;99.90
23815;DHT22;12088;53.078;8.720;2023-01-09T08:13:22;6.10;99.90
23815;DHT22;12088;53.078;8.720;2023-01-09T08:15:48;6.20;99.90
23815;DHT22;12088;53.078;8.720;2023-01-09T08:18:13;6.20;99.90
23815;DHT22;12088;53.078;8.720;2023-01-09T08:20:39;6.20;99.90
23815;DHT22;12088;53.078;8.720;2023-01-09T08:23:07;6.20;99.90
23815;DHT22;12088;53.078;8.720;2023-01-09T08:25:33;6.20;99.90
23815;DHT22;12088;53.078;8.720;2023-01-09T08:27:58;6.30;99.90
23815;DHT22;12088;53.078;8.720;2023-01-09T08:30:23;6.30;99.90
23815;DHT22;12088;53.078;8.720;2023-01-09T08:32:51;6.30;99.90
23815;DHT22;12088;53.078;8.720;2023-01-09T08:35:17;6.30;99.90
23815;DHT22;12088;53.078;8.720;2023-01-09T08:37:44;6.30;99.90
23815;DHT22;12088;53.078;8.720;2023-01-09T08:40:12;6.30;99.90
23815;DHT22;12088;53.078;8.720;2023-01-09T08:42:37;6.40;99.90
23815;DHT22;12088;53.078;8.720;2023-01-09T08:45:21;6.40;99.90
23815;DHT22;12088;53.078;8.720;2023-01-09T08:48:05;6.40;99.90
23815;DHT22;12088;53.078;8.720;2023-01-09T08:50:31;6.40;99.90
23815;DHT22;12088;53.078;8.720;2023-01-09T08:52:57;6.50;99.90
23815;DHT22;12088;53.078;8.720;2023-01-09T08:55:22;6.50;99.90
23815;DHT22;12088;53.078;8.720;2023-01-09T08:57:52;6.50;99.90
23815;DHT22;12088;53.078;8.720;2023-01-09T09:00:19;6.50;99.90
23815;DHT22;12088;53.078;8.720;2023-01-09T09:02:52;6.60;99.90
23815;DHT22;12088;53.078;8.720;2023-01-09T09:05:19;6.60;99.90
23815;DHT22;12088;53.078;8.720;2023-01-09T09:07:47;6.60;99.90
23815;DHT22;12088;53.078;8.720;2023-01-09T09:10:13;6.80;99.90
23815;DHT22;12088;53.078;8.720;2023-01-09T09:12:38;7.20;99.90
23815;DHT22;12088;53.078;8.720;2023-01-09T09:15:04;7.40;99.90
23815;DHT22;12088;53.078;8.720;2023-01-09T09:17:49;7.20;99.90
23815;DHT22;12088;53.078;8.720;2023-01-09T09:20:16;7.10;99.90
23815;DHT22;12088;53.078;8.720;2023-01-09T09:22:41;7.00;99.90
23815;DHT22;12088;53.078;8.720;2023-01-09T09:25:07;6.90;99.90
23815;DHT22;12088;53.078;8.720;2023-01-09T09:27:32;7.00;99.90
23815;DHT22;12088;53.078;8.720;2023-01-09T09:29:58;6.90;99.90
23815;DHT22;12088;53.078;8.720;2023-01-09T09:32:24;6.90;99.90
23815;DHT22;12088;53.078;8.720;2023-01-09T09:34:49;6.90;99.90
23815;DHT22;12088;53.078;8.720;2023-01-09T09:37:14;7.00;99.90
23815;DHT22;12088;53.078;8.720;2023-01-09T09:39:40;7.10;99.90
23815;DHT22;12088;53.078;8.720;2023-01-09T09:42:31;7.20;99.90
23815;DHT22;12088;53.078;8.720;2023-01-09T09:51:01;7.40;99.90
23815;DHT22;12088;53.078;8.720;2023-01-09T09:56:17;7.40;99.90
23815;DHT22;12088;53.078;8.720;2023-01-09T10:01:32;7.50;99.90
23815;DHT22;12088;53.078;8.720;2023-01-09T10:04:04;7.50;99.90
23815;DHT22;12088;53.078;8.720;2023-01-09T10:06:36;7.70;99.90
23815;DHT22;12088;53.078;8.720;2023-01-09T10:12:09;7.60;99.90
23815;DHT22;12088;53.078;8.720;2023-01-09T10:14:35;7.60;99.90
23815;DHT22;12088;53.078;8.720;2023-01-09T10:23:05;7.60;99.90
23815;DHT22;12088;53.078;8.720;2023-01-09T10:25:49;7.50;99.90
23815;DHT22;12088;53.078;8.720;2023-01-09T10:31:03;7.50;99.90
23815;DHT22;12088;53.078;8.720;2023-01-09T10:38:48;7.80;99.90
23815;DHT22;12088;53.078;8.720;2023-01-09T10:41:20;7.80;99.90
23815;DHT22;12088;53.078;8.720;2023-01-09T10:43:58;7.80;99.90
23815;DHT22;12088;53.078;8.720;2023-01-09T10:46:29;7.80;99.90
23815;DHT22;12088;53.078;8.720;2023-01-09T10:49:00;7.80;99.90
23815;DHT22;12088;53.078;8.720;2023-01-09T10:51:38;7.80;99.90
23815;DHT22;12088;53.078;8.720;2023-01-09T10:54:12;7.90;99.90
23815;DHT22;12088;53.078;8.720;2023-01-09T10:56:42;8.00;99.90
23815;DHT22;12088;53.078;8.720;2023-01-09T10:59:09;8.10;99.90
23815;DHT22;12088;53.078;8.720;2023-01-09T11:01:37;8.00;99.90
23815;DHT22;12088;53.078;8.720;2023-01-09T11:06:54;8.20;99.90
23815;DHT22;12088;53.078;8.720;2023-01-09T11:09:21;8.20;99.90
23815;DHT22;12088;53.078;8.720;2023-01-09T11:11:46;8.20;99.90
23815;DHT22;12088;53.078;8.720;2023-01-09T11:14:21;8.20;99.90
23815;DHT22;12088;53.078;8.720;2023-01-09T11:16:56;8.10;99.90
23815;DHT22;12088;53.078;8.720;2023-01-09T11:19:23;8.20;99.90
23815;DHT22;12088;53.078;8.720;2023-01-09T11:21:50;8.20;99.90
23815;DHT22;12088;53.078;8.720;2023-01-09T11:26:47;8.20;99.90
23815;DHT22;12088;53.078;8.720;2023-01-09T11:29:15;8.20;99.90
23815;DHT22;12088;53.078;8.720;2023-01-09T11:31:50;8.10;99.90
23815;DHT22;12088;53.078;8.720;2023-01-09T11:34:17;8.10;99.90
23815;DHT22;12088;53.078;8.720;2023-01-09T11:36:44;7.90;99.90
23815;DHT22;12088;53.078;8.720;2023-01-09T11:39:25;7.80;99.90
23815;DHT22;12088;53.078;8.720;2023-01-09T11:41:53;7.80;99.90
23815;DHT22;12088;53.078;8.720;2023-01-09T11:44:19;7.70;99.90
23815;DHT22;12088;53.078;8.720;2023-01-09T11:46:46;7.70;99.90
23815;DHT22;12088;53.078;8.720;2023-01-09T11:51:37;7.70;99.90
23815;DHT22;12088;53.078;8.720;2023-01-09T11:56:42;7.70;99.90
23815;DHT22;12088;53.078;8.720;2023-01-09T11:59:12;7.70;99.90
23815;DHT22;12088;53.078;8.720;2023-01-09T12:01:47;7.60;99.90
23815;DHT22;12088;53.078;8.720;2023-01-09T12:07:19;7.70;99.90
23815;DHT22;12088;53.078;8.720;2023-01-09T12:15:43;7.70;99.90
23815;DHT22;12088;53.078;8.720;2023-01-09T12:18:27;7.70;99.90
23815;DHT22;12088;53.078;8.720;2023-01-09T12:23:59;7.60;99.90
23815;DHT22;12088;53.078;8.720;2023-01-09T12:26:32;7.70;99.90
23815;DHT22;12088;53.078;8.720;2023-01-09T12:34:47;7.80;99.90
23815;DHT22;12088;53.078;8.720;2023-01-09T12:43:35;7.80;99.90
23815;DHT22;12088;53.078;8.720;2023-01-09T12:46:23;7.80;99.90
23815;DHT22;12088;53.078;8.720;2023-01-09T12:59:48;7.80;99.90
23815;DHT22;12088;53.078;8.720;2023-01-09T13:02:40;7.90;99.90
23815;DHT22;12088;53.078;8.720;2023-01-09T13:05:29;7.80;99.90
23815;DHT22;12088;53.078;8.720;2023-01-09T13:08:04;7.80;99.90
23815;DHT22;12088;53.078;8.720;2023-01-09T13:10:39;7.80;99.90
23815;DHT22;12088;53.078;8.720;2023-01-09T13:13:16;7.60;99.90
23815;DHT22;12088;53.078;8.720;2023-01-09T13:15:57;7.50;99.90
23815;DHT22;12088;53.078;8.720;2023-01-09T13:18:32;7.40;99.90
23815;DHT22;12088;53.078;8.720;2023-01-09T13:20:59;7.40;99.90
23815;DHT22;12088;53.078;8.720;2023-01-09T13:26:00;7.50;99.90
23815;DHT22;12088;53.078;8.720;2023-01-09T13:28:38;7.40;99.90
23815;DHT22;12088;53.078;8.720;2023-01-09T13:33:38;7.40;99.90
23815;DHT22;12088;53.078;8.720;2023-01-09T13:36:05;7.40;99.90
23815;DHT22;12088;53.078;8.720;2023-01-09T13:38:33;7.40;99.90
23815;DHT22;12088;53.078;8.720;2023-01-09T13:41:13;7.40;99.90
23815;DHT22;12088;53.078;8.720;2023-01-09T13:44:18;7.40;99.90
23815;DHT22;12088;53.078;8.720;2023-01-09T13:46:47;7.40;99.90
23815;DHT22;12088;53.078;8.720;2023-01-09T13:52:32;7.50;99.90
23815;DHT22;12088;53.078;8.720;2023-01-09T13:55:21;7.60;99.90
23815;DHT22;12088;53.078;8.720;2023-01-09T13:58:16;7.50;99.90
23815;DHT22;12088;53.078;8.720;2023-01-09T14:08:09;7.70;99.90
23815;DHT22;12088;53.078;8.720;2023-01-09T14:10:46;7.60;99.90
23815;DHT22;12088;53.078;8.720;2023-01-09T14:13:32;7.60;99.90
23815;DHT22;12088;53.078;8.720;2023-01-09T14:16:13;7.50;99.90
23815;DHT22;12088;53.078;8.720;2023-01-09T14:18:49;7.60;99.90
23815;DHT22;12088;53.078;8.720;2023-01-09T14:21:15;7.70;99.90
23815;DHT22;12088;53.078;8.720;2023-01-09T14:23:48;7.50;99.90
23815;DHT22;12088;53.078;8.720;2023-01-09T14:26:24;7.40;99.90
23815;DHT22;12088;53.078;8.720;2023-01-09T14:28:50;7.40;99.90
23815;DHT22;12088;53.078;8.720;2023-01-09T14:31:30;7.40;99.90
23815;DHT22;12088;53.078;8.720;2023-01-09T14:34:23;7.30;99.90
23815;DHT22;12088;53.078;8.720;2023-01-09T14:36:51;7.20;99.90
23815;DHT22;12088;53.078;8.720;2023-01-09T14:39:20;7.20;99.90
23815;DHT22;12088;53.078;8.720;2023-01-09T14:41:51;7.10;99.90
23815;DHT22;12088;53.078;8.720;2023-01-09T14:45:05;7.10;99.90
23815;DHT22;12088;53.078;8.720;2023-01-09T14:50:41;7.20;99.90
23815;DHT22;12088;53.078;8.720;2023-01-09T14:53:22;7.10;99.90
23815;DHT22;12088;53.078;8.720;2023-01-09T14:55:57;7.20;99.90
23815;DHT22;12088;53.078;8.720;2023-01-09T14:58:33;7.20;99.90
23815;DHT22;12088;53.078;8.720;2023-01-09T15:01:04;7.20;99.90
23815;DHT22;12088;53.078;8.720;2023-01-09T15:06:03;7.20;99.90
23815;DHT22;12088;53.078;8.720;2023-01-09T15:08:29;7.20;99.90
23815;DHT22;12088;53.078;8.720;2023-01-09T15:10:57;7.20;99.90
23815;DHT22;12088;53.078;8.720;2023-01-09T15:13:39;7.20;99.90
23815;DHT22;12088;53.078;8.720;2023-01-09T15:16:06;7.10;99.90
23815;DHT22;12088;53.078;8.720;2023-01-09T15:18:41;7.20;99.90
23815;DHT22;12088;53.078;8.720;2023-01-09T15:21:16;7.10;99.90
23815;DHT22;12088;53.078;8.720;2023-01-09T15:23:42;7.10;99.90
23815;DHT22;12088;53.078;8.720;2023-01-09T15:26:27;7.10;99.90
23815;DHT22;12088;53.078;8.720;2023-01-09T15:29:00;7.10;99.90
23815;DHT22;12088;53.078;8.720;2023-01-09T15:31:26;7.10;99.90
23815;DHT22;12088;53.078;8.720;2023-01-09T15:33:53;7.10;99.90
23815;DHT22;12088;53.078;8.720;2023-01-09T15:36:19;7.00;99.90
23815;DHT22;12088;53.078;8.720;2023-01-09T15:38:47;7.00;99.90
23815;DHT22;12088;53.078;8.720;2023-01-09T15:41:16;7.00;99.90
23815;DHT22;12088;53.078;8.720;2023-01-09T15:44:03;7.00;99.90
23815;DHT22;12088;53.078;8.720;2023-01-09T15:46:30;7.10;99.90
23815;DHT22;12088;53.078;8.720;2023-01-09T15:48:56;7.10;99.90
23815;DHT22;12088;53.078;8.720;2023-01-09T15:51:22;7.10;99.90
23815;DHT22;12088;53.078;8.720;2023-01-09T15:53:48;7.10;99.90
23815;DHT22;12088;53.078;8.720;2023-01-09T15:56:24;7.00;99.90
23815;DHT22;12088;53.078;8.720;2023-01-09T15:58:56;7.10;99.90
23815;DHT22;12088;53.078;8.720;2023-01-09T16:01:38;7.10;99.90
23815;DHT22;12088;53.078;8.720;2023-01-09T16:04:08;7.10;99.90
23815;DHT22;12088;53.078;8.720;2023-01-09T16:06:37;7.10;99.90
23815;DHT22;12088;53.078;8.720;2023-01-09T16:09:18;7.10;99.90
23815;DHT22;12088;53.078;8.720;2023-01-09T16:11:49;7.10;99.90
23815;DHT22;12088;53.078;8.720;2023-01-09T16:16:50;7.10;99.90
23815;DHT22;12088;53.078;8.720;2023-01-09T16:19:50;7.10;99.90
23815;DHT22;12088;53.078;8.720;2023-01-09T16:22:25;7.10;99.90
23815;DHT22;12088;53.078;8.720;2023-01-09T16:24:53;7.00;99.90
23815;DHT22;12088;53.078;8.720;2023-01-09T16:27:25;7.10;99.90
23815;DHT22;12088;53.078;8.720;2023-01-09T16:29:53;7.10;99.90
23815;DHT22;12088;53.078;8.720;2023-01-09T16:32:28;7.00;99.90
23815;DHT22;12088;53.078;8.720;2023-01-09T16:34:56;7.10;99.90
23815;DHT22;12088;53.078;8.720;2023-01-09T16:37:23;7.00;99.90
23815;DHT22;12088;53.078;8.720;2023-01-09T16:42:53;7.00;99.90
23815;DHT22;12088;53.078;8.720;2023-01-09T16:45:47;7.00;99.90
23815;DHT22;12088;53.078;8.720;2023-01-09T16:48:20;7.00;99.90
23815;DHT22;12088;53.078;8.720;2023-01-09T16:50:46;7.00;99.90
23815;DHT22;12088;53.078;8.720;2023-01-09T16:53:17;7.00;99.90
23815;DHT22;12088;53.078;8.720;2023-01-09T16:55:43;7.00;99.90
23815;DHT22;12088;53.078;8.720;2023-01-09T16:58:29;7.10;99.90
23815;DHT22;12088;53.078;8.720;2023-01-09T17:00:58;7.10;99.90
23815;DHT22;12088;53.078;8.720;2023-01-09T17:03:23;7.10;99.90
23815;DHT22;12088;53.078;8.720;2023-01-09T17:05:58;7.10;99.90
23815;DHT22;12088;53.078;8.720;2023-01-09T17:08:30;7.10;99.90
23815;DHT22;12088;53.078;8.720;2023-01-09T17:10:56;7.00;99.90
23815;DHT22;12088;53.078;8.720;2023-01-09T17:13:23;7.00;99.90
23815;DHT22;12088;53.078;8.720;2023-01-09T17:15:50;7.00;99.90
23815;DHT22;12088;53.078;8.720;2023-01-09T17:18:19;7.00;99.90
23815;DHT22;12088;53.078;8.720;2023-01-09T17:20:47;7.00;99.90
23815;DHT22;12088;53.078;8.720;2023-01-09T17:23:12;7.00;99.90
23815;DHT22;12088;53.078;8.720;2023-01-09T17:25:38;7.00;99.90
23815;DHT22;12088;53.078;8.720;2023-01-09T17:28:23;6.90;99.90
23815;DHT22;12088;53.078;8.720;2023-01-09T17:31:06;7.00;99.90
23815;DHT22;12088;53.078;8.720;2023-01-09T17:33:34;7.00;99.90
23815;DHT22;12088;53.078;8.720;2023-01-09T17:36:27;7.00;99.90
23815;DHT22;12088;53.078;8.720;2023-01-09T17:38:51;7.00;99.90
23815;DHT22;12088;53.078;8.720;2023-01-09T17:41:20;7.00;99.90
23815;DHT22;12088;53.078;8.720;2023-01-09T17:43:46;7.00;99.90
23815;DHT22;12088;53.078;8.720;2023-01-09T17:46:26;7.00;99.90
23815;DHT22;12088;53.078;8.720;2023-01-09T17:48:53;7.00;99.90
23815;DHT22;12088;53.078;8.720;2023-01-09T17:51:19;7.00;99.90
23815;DHT22;12088;53.078;8.720;2023-01-09T17:53:44;7.00;99.90
23815;DHT22;12088;53.078;8.720;2023-01-09T17:56:37;6.90;99.90
23815;DHT22;12088;53.078;8.720;2023-01-09T17:59:04;6.90;99.90
23815;DHT22;12088;53.078;8.720;2023-01-09T18:01:32;6.90;99.90
23815;DHT22;12088;53.078;8.720;2023-01-09T18:03:58;6.90;99.90
23815;DHT22;12088;53.078;8.720;2023-01-09T18:06:24;7.00;99.90